Time,TemperatureF,DewpointF,PressureIn,WindDirection,WindDirectionDegrees,WindSpeedMPH,WindSpeedGustMPH,Humidity,HourlyPrecipIn,Conditions,Clouds,dailyrainin,SolarRadiationWatts/m^2,SoftwareType,DateUTC
2013-05-13 00:01:00,43.1,33.6,30.15,WNW,290,0.9,2.3,69,0.00,CLR,,0.00,0.0,WeatherDisplay:10.37,2013-05-13 05:01:00,
2013-05-13 00:06:00,43.1,33.6,30.15,WNW,290,0.6,1.2,69,0.00,CLR,,0.00,0.0,WeatherDisplay:10.37,2013-05-13 05:06:00,
2013-05-13 00:11:00,43.2,33.7,30.14,WNW,290,0.8,2.3,69,0.00,CLR,,0.00,0.0,WeatherDisplay:10.37,2013-05-13 05:11:00,
2013-05-13 00:16:00,43.3,33.4,30.15,WNW,290,1.2,2.3,68,0.00,CLR,,0.00,0.0,WeatherDisplay:10.37,2013-05-13 05:16:00,
2013-05-13 00:21:00,43.6,33.7,30.15,WNW,290,1.3,2.3,68,0.00,CLR,,0.00,0.0,WeatherDisplay:10.37,2013-05-13 05:21:00,
2013-05-13 00:26:00,43.7,33.5,30.14,WNW,290,1.2,2.3,67,0.00,CLR,,0.00,0.0,WeatherDisplay:10.37,2013-05-13 05:26:00,
2013-05-13 00:31:00,43.8,33.6,30.14,WNW,290,0.4,2.0,67,0.00,CLR,,0.00,0.0,WeatherDisplay:10.37,2013-05-13 05:31:00,
2013-05-13 00:36:00,43.9,33.3,30.15,WNW,290,0.4,1.2,66,0.00,CLR,,0.00,0.0,WeatherDisplay:10.37,2013-05-13 05:36:00,
2013-05-13 00:41:00,44.0,33.4,30.15,WNW,290,0.1,2.3,66,0.00,CLR,,0.00,0.0,WeatherDisplay:10.37,2013-05-13 05:41:00,
2013-05-13 00:46:00,44.1,33.5,30.15,WNW,290,0.1,2.3,66,0.00,CLR,,0.00,0.0,WeatherDisplay:10.37,2013-05-13 05:46:00,
2013-05-13 00:51:00,44.2,33.6,30.15,WNW,290,0.0,0.0,66,0.00,CLR,,0.00,0.0,WeatherDisplay:10.37,2013-05-13 05:51:00,
2013-05-13 00:56:00,44.2,33.6,30.15,WNW,290,0.2,2.0,66,0.00,CLR,,0.00,0.0,WeatherDisplay:10.37,2013-05-13 05:56:00,
2013-05-13 01:01:00,44.2,33.6,30.15,WNW,290,0.0,0.0,66,0.00,CLR,,0.00,0.0,WeatherDisplay:10.37,2013-05-13 06:01:00,
2013-05-13 01:06:00,44.2,33.6,30.14,WNW,290,0.0,0.0,66,0.00,CLR,,0.00,0.0,WeatherDisplay:10.37,2013-05-13 06:06:00,
2013-05-13 01:11:00,44.1,33.5,30.14,WNW,290,0.0,0.0,66,0.00,CLR,,0.00,0.0,WeatherDisplay:10.37,2013-05-13 06:11:00,
2013-05-13 01:16:00,44.0,33.0,30.14,WNW,290,0.0,0.0,65,0.00,CLR,,0.00,0.0,WeatherDisplay:10.37,2013-05-13 06:16:00,
2013-05-13 01:21:00,43.9,32.9,30.14,WNW,290,0.0,0.0,65,0.00,CLR,,0.00,0.0,WeatherDisplay:10.37,2013-05-13 06:21:00,
2013-05-13 01:26:00,43.8,32.8,30.15,WNW,290,0.1,1.2,65,0.00,CLR,,0.00,0.0,WeatherDisplay:10.37,2013-05-13 06:26:00,
2013-05-13 01:31:00,43.6,33.0,30.14,WNW,290,0.0,0.0,66,0.00,CLR,,0.00,0.0,WeatherDisplay:10.37,2013-05-13 06:31:00,
2013-05-13 01:36:00,43.5,32.5,30.14,WNW,290,0.0,0.0,65,0.00,CLR,,0.00,0.0,WeatherDisplay:10.37,2013-05-13 06:36:00,
2013-05-13 01:41:00,43.4,32.8,30.14,WNW,290,0.0,0.0,66,0.00,CLR,,0.00,0.0,WeatherDisplay:10.37,2013-05-13 06:41:00,
2013-05-13 01:46:00,43.3,32.3,30.14,WNW,290,0.0,0.0,65,0.00,CLR,,0.00,0.0,WeatherDisplay:10.37,2013-05-13 06:46:00,
2013-05-13 01:51:00,43.1,32.5,30.14,WNW,290,0.0,0.0,66,0.00,CLR,,0.00,0.0,WeatherDisplay:10.37,2013-05-13 06:51:00,
2013-05-13 01:56:00,43.0,32.4,30.14,WNW,290,0.0,0.0,66,0.00,CLR,,0.00,0.0,WeatherDisplay:10.37,2013-05-13 06:56:00,
2013-05-13 02:01:00,42.8,32.2,30.14,WNW,290,0.0,0.0,66,0.00,CLR,,0.00,0.0,WeatherDisplay:10.37,2013-05-13 07:01:00,
2013-05-13 02:06:00,42.6,32.4,30.14,WNW,290,0.0,0.0,67,0.00,CLR,,0.00,0.0,WeatherDisplay:10.37,2013-05-13 07:06:00,
2013-05-13 02:11:00,42.4,32.2,30.14,WNW,290,0.0,0.0,67,0.00,CLR,,0.00,0.0,WeatherDisplay:10.37,2013-05-13 07:11:00,
2013-05-13 02:16:00,42.2,32.4,30.14,WNW,290,0.0,0.0,68,0.00,CLR,,0.00,0.0,WeatherDisplay:10.37,2013-05-13 07:16:00,
2013-05-13 02:21:00,42.0,32.2,30.14,WNW,290,0.0,0.0,68,0.00,CLR,,0.00,0.0,WeatherDisplay:10.37,2013-05-13 07:21:00,
2013-05-13 02:26:00,41.7,32.6,30.14,WNW,290,0.0,0.0,70,0.00,CLR,,0.00,0.0,WeatherDisplay:10.37,2013-05-13 07:26:00,
2013-05-13 02:31:00,41.5,32.8,30.14,WNW,290,0.0,0.0,71,0.00,CLR,,0.00,0.0,WeatherDisplay:10.37,2013-05-13 07:31:00,
2013-05-13 02:36:00,41.4,33.0,30.14,WNW,290,0.0,0.0,72,0.00,CLR,,0.00,0.0,WeatherDisplay:10.37,2013-05-13 07:36:00,
2013-05-13 02:41:00,41.3,33.0,30.14,WNW,290,0.0,0.0,72,0.00,CLR,,0.00,0.0,WeatherDisplay:10.37,2013-05-13 07:41:00,
2013-05-13 02:46:00,41.1,33.1,30.14,WNW,290,0.0,0.0,73,0.00,CLR,,0.00,0.0,WeatherDisplay:10.37,2013-05-13 07:46:00,
2013-05-13 02:51:00,41.0,33.3,30.14,WNW,290,0.0,0.0,74,0.00,CLR,,0.00,0.0,WeatherDisplay:10.37,2013-05-13 07:51:00,
2013-05-13 02:56:00,40.9,33.2,30.14,WNW,290,0.0,0.0,74,0.00,CLR,,0.00,0.0,WeatherDisplay:10.37,2013-05-13 07:56:00,
2013-05-13 03:01:00,40.7,33.4,30.14,WNW,290,0.0,0.0,75,0.00,CLR,,0.00,0.0,WeatherDisplay:10.37,2013-05-13 08:01:00,
2013-05-13 03:06:00,40.5,33.5,30.14,WNW,290,0.0,0.0,76,0.00,CLR,,0.00,0.0,WeatherDisplay:10.37,2013-05-13 08:06:00,
2013-05-13 03:11:00,40.4,33.4,30.14,WNW,290,0.0,0.0,76,0.00,CLR,,0.00,0.0,WeatherDisplay:10.37,2013-05-13 08:11:00,
2013-05-13 03:16:00,40.2,33.2,30.14,WNW,290,0.0,0.0,76,0.00,CLR,,0.00,0.0,WeatherDisplay:10.37,2013-05-13 08:16:00,
2013-05-13 03:21:00,40.0,33.4,30.14,WNW,290,0.0,0.0,77,0.00,CLR,,0.00,0.0,WeatherDisplay:10.37,2013-05-13 08:21:00,
2013-05-13 03:26:00,39.9,33.3,30.14,WNW,290,0.0,0.0,77,0.00,CLR,,0.00,0.0,WeatherDisplay:10.37,2013-05-13 08:26:00,
2013-05-13 03:31:00,39.7,33.1,30.14,WNW,290,0.0,0.0,77,0.00,CLR,,0.00,0.0,WeatherDisplay:10.37,2013-05-13 08:31:00,
2013-05-13 03:36:00,39.5,32.9,30.14,WNW,290,1.1,2.0,77,0.00,CLR,,0.00,0.0,WeatherDisplay:10.37,2013-05-13 08:36:00,
2013-05-13 03:41:00,39.2,32.9,30.14,WNW,290,0.0,0.0,78,0.00,CLR,,0.00,0.0,WeatherDisplay:10.37,2013-05-13 08:41:00,
2013-05-13 03:46:00,38.9,32.6,30.14,WNW,290,0.0,0.0,78,0.00,CLR,,0.00,0.0,WeatherDisplay:10.37,2013-05-13 08:46:00,
2013-05-13 03:51:00,38.8,32.5,30.14,WNW,290,0.0,0.0,78,0.00,CLR,,0.00,0.0,WeatherDisplay:10.37,2013-05-13 08:51:00,
2013-05-13 03:56:00,38.6,32.6,30.14,WNW,290,0.0,0.0,79,0.00,CLR,,0.00,0.0,WeatherDisplay:10.37,2013-05-13 08:56:00,
2013-05-13 04:01:00,38.4,32.5,30.14,WNW,290,0.0,0.0,79,0.00,CLR,,0.00,0.0,WeatherDisplay:10.37,2013-05-13 09:01:00,
2013-05-13 04:06:00,38.3,32.4,30.14,WNW,290,0.0,0.0,79,0.00,CLR,,0.00,0.0,WeatherDisplay:10.37,2013-05-13 09:06:00,
2013-05-13 04:11:00,38.2,32.3,30.14,WNW,290,0.0,0.0,79,0.00,CLR,,0.00,0.0,WeatherDisplay:10.37,2013-05-13 09:11:00,
2013-05-13 04:16:00,38.1,32.5,30.14,WNW,290,0.0,0.0,80,0.00,CLR,,0.00,0.0,WeatherDisplay:10.37,2013-05-13 09:16:00,
2013-05-13 04:21:00,37.9,32.3,30.14,WNW,290,0.0,0.0,80,0.00,CLR,,0.00,0.0,WeatherDisplay:10.37,2013-05-13 09:21:00,
2013-05-13 04:26:00,37.8,32.2,30.14,WNW,290,0.0,0.0,80,0.00,CLR,,0.00,0.0,WeatherDisplay:10.37,2013-05-13 09:26:00,
2013-05-13 04:31:00,37.7,32.1,30.14,WNW,290,0.0,0.0,80,0.00,CLR,,0.00,0.0,WeatherDisplay:10.37,2013-05-13 09:31:00,
2013-05-13 04:36:00,37.7,32.4,30.14,WNW,290,0.0,0.0,81,0.00,CLR,,0.00,0.0,WeatherDisplay:10.37,2013-05-13 09:36:00,
2013-05-13 04:41:00,37.5,32.2,30.14,WNW,290,0.0,0.0,81,0.00,CLR,,0.00,0.0,WeatherDisplay:10.37,2013-05-13 09:41:00,
2013-05-13 04:46:00,37.4,32.1,30.14,WNW,290,0.0,0.0,81,0.00,CLR,,0.00,0.0,WeatherDisplay:10.37,2013-05-13 09:46:00,
2013-05-13 04:51:00,37.3,32.0,30.14,WNW,290,0.0,0.0,81,0.00,CLR,,0.00,0.0,WeatherDisplay:10.37,2013-05-13 09:51:00,
2013-05-13 04:56:00,37.2,32.2,30.14,WNW,290,0.0,0.0,82,0.00,CLR,,0.00,0.0,WeatherDisplay:10.37,2013-05-13 09:56:00,
2013-05-13 05:01:00,37.1,32.1,30.14,WNW,290,0.0,0.0,82,0.00,CLR,,0.00,0.0,WeatherDisplay:10.37,2013-05-13 10:01:00,
2013-05-13 05:06:00,37.0,32.0,30.14,WNW,290,0.0,0.0,82,0.00,CLR,,0.00,0.0,WeatherDisplay:10.37,2013-05-13 10:06:00,
2013-05-13 05:11:00,36.8,31.8,30.14,WNW,290,0.0,0.0,82,0.00,CLR,,0.00,0.0,WeatherDisplay:10.37,2013-05-13 10:11:00,
2013-05-13 05:16:00,36.6,31.9,30.14,WNW,290,0.0,0.0,83,0.00,CLR,,0.00,0.0,WeatherDisplay:10.37,2013-05-13 10:16:00,
2013-05-13 05:21:00,36.5,31.8,30.14,WNW,290,0.0,0.0,83,0.00,OVC,,0.00,0.0,WeatherDisplay:10.37,2013-05-13 10:21:00,
2013-05-13 05:26:00,36.4,31.7,30.14,WNW,290,0.0,0.0,83,0.00,OVC,,0.00,0.0,WeatherDisplay:10.37,2013-05-13 10:26:00,
2013-05-13 05:31:00,36.4,32.0,30.15,WNW,290,0.0,0.0,84,0.00,OVC,,0.00,0.0,WeatherDisplay:10.37,2013-05-13 10:31:00,
2013-05-13 05:37:00,36.4,32.0,30.15,WNW,290,0.0,0.0,84,0.00,OVC,,0.00,0.0,WeatherDisplay:10.37,2013-05-13 10:37:00,
2013-05-13 05:42:00,36.4,32.0,30.15,WNW,290,0.0,0.0,84,0.00,OVC,,0.00,0.0,WeatherDisplay:10.37,2013-05-13 10:42:00,
2013-05-13 05:47:00,36.3,31.9,30.15,WNW,290,0.0,0.0,84,0.00,OVC,,0.00,0.0,WeatherDisplay:10.37,2013-05-13 10:47:00,
2013-05-13 05:52:00,36.2,31.8,30.15,WNW,290,0.0,0.0,84,0.00,OVC,,0.00,6.2,WeatherDisplay:10.37,2013-05-13 10:52:00,
2013-05-13 05:57:00,36.1,31.7,30.15,WNW,290,0.0,0.0,84,0.00,CLR,,0.00,11.2,WeatherDisplay:10.37,2013-05-13 10:57:00,
2013-05-13 06:02:00,36.1,31.7,30.16,WNW,290,0.0,0.0,84,0.00,CLR,,0.00,14.9,WeatherDisplay:10.37,2013-05-13 11:02:00,
2013-05-13 06:07:00,36.0,31.6,30.16,WNW,290,0.0,0.0,84,0.00,FEW,,0.00,17.4,WeatherDisplay:10.37,2013-05-13 11:07:00,
2013-05-13 06:12:00,35.9,31.5,30.16,WNW,290,0.0,0.0,84,0.00,FEW,,0.00,23.6,WeatherDisplay:10.37,2013-05-13 11:12:00,
2013-05-13 06:17:00,35.9,31.8,30.16,WNW,290,0.0,0.0,85,0.00,CLR,,0.00,43.4,WeatherDisplay:10.37,2013-05-13 11:17:00,
2013-05-13 06:22:00,36.0,31.9,30.16,WNW,290,0.0,0.0,85,0.00,CLR,,0.00,54.6,WeatherDisplay:10.37,2013-05-13 11:22:00,
2013-05-13 06:27:00,36.1,32.3,30.16,WNW,290,0.0,0.0,86,0.00,CLR,,0.00,71.9,WeatherDisplay:10.37,2013-05-13 11:27:00,
2013-05-13 06:32:00,36.2,32.4,30.17,WNW,290,0.0,0.0,86,0.00,CLR,,0.00,67.0,WeatherDisplay:10.37,2013-05-13 11:32:00,
2013-05-13 06:37:00,36.4,32.6,30.17,WNW,290,0.0,0.0,86,0.00,CLR,,0.00,69.4,WeatherDisplay:10.37,2013-05-13 11:37:00,
2013-05-13 06:42:00,36.7,32.9,30.17,WNW,290,0.0,0.0,86,0.00,CLR,,0.00,83.1,WeatherDisplay:10.37,2013-05-13 11:42:00,
2013-05-13 06:47:00,37.0,33.2,30.17,WNW,290,0.0,0.0,86,0.00,CLR,,0.00,89.3,WeatherDisplay:10.37,2013-05-13 11:47:00,
2013-05-13 06:52:00,37.4,33.9,30.18,WNW,290,0.0,0.0,87,0.00,CLR,,0.00,137.6,WeatherDisplay:10.37,2013-05-13 11:52:00,
2013-05-13 06:57:00,37.8,34.3,30.18,WNW,290,0.0,0.0,87,0.00,CLR,,0.00,181.0,WeatherDisplay:10.37,2013-05-13 11:57:00,
2013-05-13 07:02:00,38.3,34.8,30.18,WNW,290,0.0,0.0,87,0.00,CLR,,0.00,215.8,WeatherDisplay:10.37,2013-05-13 12:02:00,
2013-05-13 07:07:00,38.9,35.4,30.18,WNW,290,0.0,0.0,87,0.00,CLR,,0.00,235.6,WeatherDisplay:10.37,2013-05-13 12:07:00,
2013-05-13 07:12:00,39.7,36.4,30.18,WNW,290,0.0,0.0,88,0.00,CLR,,0.00,261.6,WeatherDisplay:10.37,2013-05-13 12:12:00,
2013-05-13 07:17:00,40.7,37.4,30.18,WNW,290,0.0,0.0,88,0.00,CLR,,0.00,284.0,WeatherDisplay:10.37,2013-05-13 12:17:00,
2013-05-13 07:22:00,41.7,38.4,30.18,WNW,290,0.0,0.0,88,0.00,CLR,,0.00,301.3,WeatherDisplay:10.37,2013-05-13 12:22:00,
2013-05-13 07:27:00,42.8,39.5,30.18,WNW,290,0.0,0.0,88,0.00,CLR,,0.00,322.4,WeatherDisplay:10.37,2013-05-13 12:27:00,
2013-05-13 07:32:00,43.6,40.0,30.18,WNW,290,0.0,0.0,87,0.00,CLR,,0.00,337.3,WeatherDisplay:10.37,2013-05-13 12:32:00,
2013-05-13 07:37:00,44.4,40.5,30.18,WNW,290,0.0,0.0,86,0.00,CLR,,0.00,368.3,WeatherDisplay:10.37,2013-05-13 12:37:00,
2013-05-13 07:42:00,45.1,40.9,30.18,WNW,290,0.0,0.0,85,0.00,CLR,,0.00,385.6,WeatherDisplay:10.37,2013-05-13 12:42:00,
2013-05-13 07:47:00,46.0,40.8,30.18,WNW,290,0.0,2.3,82,0.00,CLR,,0.00,409.2,WeatherDisplay:10.37,2013-05-13 12:47:00,
2013-05-13 07:52:00,46.9,41.1,30.18,WNW,290,0.0,0.0,80,0.00,CLR,,0.00,425.3,WeatherDisplay:10.37,2013-05-13 12:52:00,
2013-05-13 07:57:00,48.1,41.6,30.18,WNW,290,0.0,0.0,78,0.00,CLR,,0.00,453.8,WeatherDisplay:10.37,2013-05-13 12:57:00,
2013-05-13 08:02:00,48.9,41.7,30.18,WNW,290,0.0,0.0,76,0.00,CLR,,0.00,472.4,WeatherDisplay:10.37,2013-05-13 13:02:00,
2013-05-13 08:07:00,49.6,40.9,30.18,WNW,290,2.2,3.5,72,0.00,CLR,,0.00,497.2,WeatherDisplay:10.37,2013-05-13 13:07:00,
2013-05-13 08:12:00,50.0,39.8,30.18,WNW,290,1.6,3.5,68,0.00,CLR,,0.00,512.1,WeatherDisplay:10.37,2013-05-13 13:12:00,
2013-05-13 08:17:00,50.6,40.0,30.18,WNW,290,1.2,3.5,67,0.00,CLR,,0.00,535.7,WeatherDisplay:10.37,2013-05-13 13:17:00,
2013-05-13 08:22:00,50.8,39.8,30.18,WNW,290,1.9,4.0,66,0.00,CLR,,0.00,555.5,WeatherDisplay:10.37,2013-05-13 13:22:00,
2013-05-13 08:27:00,51.2,40.6,30.18,WNW,290,1.3,3.0,67,0.00,CLR,,0.00,575.4,WeatherDisplay:10.37,2013-05-13 13:27:00,
2013-05-13 08:32:00,51.5,40.1,30.18,WNW,290,3.2,4.6,65,0.00,CLR,,0.00,597.7,WeatherDisplay:10.37,2013-05-13 13:32:00,
2013-05-13 08:37:00,51.8,40.0,30.18,WNW,290,2.7,4.0,64,0.00,CLR,,0.00,618.8,WeatherDisplay:10.37,2013-05-13 13:37:00,
2013-05-13 08:42:00,52.1,40.3,30.18,WNW,290,0.9,2.3,64,0.00,CLR,,0.00,638.6,WeatherDisplay:10.37,2013-05-13 13:42:00,
2013-05-13 08:47:00,52.6,40.4,30.18,WNW,290,2.7,6.0,63,0.00,CLR,,0.00,653.5,WeatherDisplay:10.37,2013-05-13 13:47:00,
2013-05-13 08:52:00,53.2,40.9,30.18,WNW,290,2.9,4.0,63,0.00,CLR,,0.00,679.5,WeatherDisplay:10.37,2013-05-13 13:52:00,
2013-05-13 08:57:00,53.8,40.2,30.18,West,272,4.2,10.0,60,0.00,CLR,,0.00,695.6,WeatherDisplay:10.37,2013-05-13 13:57:00,
2013-05-13 09:02:00,54.2,40.2,30.18,West,268,3.6,5.0,59,0.00,CLR,,0.00,716.7,WeatherDisplay:10.37,2013-05-13 14:02:00,
2013-05-13 09:07:00,54.6,40.6,30.18,WNW,298,4.0,8.0,59,0.00,CLR,,0.00,734.1,WeatherDisplay:10.37,2013-05-13 14:07:00,
2013-05-13 09:12:00,55.3,40.3,30.18,SW,233,4.7,10.4,57,0.00,CLR,,0.00,753.9,WeatherDisplay:10.37,2013-05-13 14:12:00,
2013-05-13 09:17:00,55.7,40.2,30.19,West,277,4.8,6.9,56,0.00,CLR,,0.00,771.3,WeatherDisplay:10.37,2013-05-13 14:17:00,
2013-05-13 09:22:00,55.9,39.5,30.19,West,272,6.9,11.5,54,0.00,CLR,,0.00,791.1,WeatherDisplay:10.37,2013-05-13 14:22:00,
2013-05-13 09:27:00,56.1,39.2,30.19,West,276,6.9,10.4,53,0.00,CLR,,0.00,813.4,WeatherDisplay:10.37,2013-05-13 14:27:00,
2013-05-13 09:32:00,56.4,39.5,30.18,West,281,4.9,5.8,53,0.00,CLR,,0.00,830.8,WeatherDisplay:10.37,2013-05-13 14:32:00,
2013-05-13 09:37:00,56.9,39.9,30.18,West,264,3.7,4.6,53,0.00,CLR,,0.00,851.9,WeatherDisplay:10.37,2013-05-13 14:37:00,
2013-05-13 09:42:00,57.6,39.1,30.18,West,264,5.2,8.1,50,0.00,CLR,,0.00,868.0,WeatherDisplay:10.37,2013-05-13 14:42:00,
2013-05-13 09:47:00,58.2,39.6,30.18,SW,223,4.9,9.2,50,0.00,CLR,,0.00,885.4,WeatherDisplay:10.37,2013-05-13 14:47:00,
2013-05-13 09:52:00,58.6,38.4,30.18,West,277,6.0,7.0,47,0.00,CLR,,0.00,895.3,WeatherDisplay:10.37,2013-05-13 14:52:00,
2013-05-13 09:57:00,59.0,38.8,30.18,West,270,3.7,7.0,47,0.00,CLR,,0.00,911.4,WeatherDisplay:10.37,2013-05-13 14:57:00,
2013-05-13 10:02:00,59.3,39.1,30.18,West,270,6.4,10.4,47,0.00,CLR,,0.00,926.3,WeatherDisplay:10.37,2013-05-13 15:02:00,
2013-05-13 10:07:00,59.5,38.7,30.18,West,280,4.4,7.0,46,0.00,CLR,,0.00,941.2,WeatherDisplay:10.37,2013-05-13 15:07:00,
2013-05-13 10:12:00,59.9,38.5,30.18,West,276,6.5,12.0,45,0.00,CLR,,0.00,952.3,WeatherDisplay:10.37,2013-05-13 15:12:00,
2013-05-13 10:17:00,60.3,38.9,30.18,SW,228,8.0,11.5,45,0.00,CLR,,0.00,969.7,WeatherDisplay:10.37,2013-05-13 15:17:00,
2013-05-13 10:22:00,61.0,38.9,30.18,WSW,244,3.4,6.0,44,0.00,CLR,,0.00,985.8,WeatherDisplay:10.37,2013-05-13 15:22:00,
2013-05-13 10:27:00,61.6,37.7,30.18,SW,232,4.6,11.5,41,0.00,CLR,,0.00,1000.7,WeatherDisplay:10.37,2013-05-13 15:27:00,
2013-05-13 10:32:00,62.3,37.7,30.18,West,281,5.8,11.5,40,0.00,CLR,,0.00,1003.2,WeatherDisplay:10.37,2013-05-13 15:32:00,
2013-05-13 10:37:00,62.4,35.8,30.18,West,267,7.2,10.0,37,0.00,CLR,,0.00,946.1,WeatherDisplay:10.37,2013-05-13 15:37:00,
2013-05-13 10:42:00,63.0,37.0,30.17,WNW,284,5.1,11.0,38,0.00,CLR,,0.00,1037.9,WeatherDisplay:10.37,2013-05-13 15:42:00,
2013-05-13 10:47:00,62.9,34.8,30.17,SW,230,6.1,10.0,35,0.00,CLR,,0.00,1049.0,WeatherDisplay:10.37,2013-05-13 15:47:00,
2013-05-13 10:52:00,62.8,33.2,30.17,WNW,302,6.8,11.5,33,0.00,CLR,,0.00,1063.9,WeatherDisplay:10.37,2013-05-13 15:52:00,
2013-05-13 10:57:00,63.4,36.0,30.17,WNW,296,3.9,7.0,36,0.00,CLR,,0.00,1075.1,WeatherDisplay:10.37,2013-05-13 15:57:00,
2013-05-13 11:02:00,63.9,35.7,30.17,West,266,6.3,12.0,35,0.00,CLR,,0.00,1085.0,WeatherDisplay:10.37,2013-05-13 16:02:00,
2013-05-13 11:07:00,64.0,36.5,30.17,WNW,287,4.9,10.4,36,0.00,CLR,,0.00,1098.6,WeatherDisplay:10.37,2013-05-13 16:07:00,
2013-05-13 11:12:00,64.1,35.1,30.17,WSW,244,3.7,6.9,34,0.00,CLR,,0.00,1107.3,WeatherDisplay:10.37,2013-05-13 16:12:00,
2013-05-13 11:17:00,64.4,33.9,30.17,SW,223,4.7,7.0,32,0.00,CLR,,0.00,1104.8,WeatherDisplay:10.37,2013-05-13 16:17:00,
2013-05-13 11:22:00,64.7,33.3,30.16,WNW,287,4.4,9.2,31,0.00,CLR,,0.00,1127.2,WeatherDisplay:10.37,2013-05-13 16:22:00,
2013-05-13 11:27:00,64.8,33.4,30.16,WNW,284,8.2,11.5,31,0.00,CLR,,0.00,1135.8,WeatherDisplay:10.37,2013-05-13 16:27:00,
2013-05-13 11:32:00,64.8,33.4,30.16,WSW,249,3.5,8.1,31,0.00,CLR,,0.00,1147.0,WeatherDisplay:10.37,2013-05-13 16:32:00,
2013-05-13 11:37:00,65.2,33.0,30.16,WNW,296,6.6,9.2,30,0.00,CLR,,0.00,1148.2,WeatherDisplay:10.37,2013-05-13 16:37:00,
2013-05-13 11:42:00,64.8,30.9,30.16,West,263,3.1,5.0,28,0.00,CLR,,0.00,1155.7,WeatherDisplay:10.37,2013-05-13 16:42:00,
2013-05-13 11:47:00,65.2,32.1,30.16,WSW,242,1.9,4.6,29,0.00,CLR,,0.00,1164.4,WeatherDisplay:10.37,2013-05-13 16:47:00,
2013-05-13 11:53:00,65.6,32.5,30.16,North,355,5.8,8.1,29,0.00,CLR,,0.00,1168.1,WeatherDisplay:10.37,2013-05-13 16:53:00,
2013-05-13 11:58:00,66.0,31.9,30.15,WNW,282,2.4,4.6,28,0.00,CLR,,0.00,1185.4,WeatherDisplay:10.37,2013-05-13 16:58:00,
2013-05-13 12:03:00,65.9,30.9,30.15,WNW,302,5.9,9.2,27,0.00,CLR,,0.00,1183.0,WeatherDisplay:10.37,2013-05-13 17:03:00,
2013-05-13 12:08:00,66.3,31.3,30.15,WNW,286,2.8,5.8,27,0.00,CLR,,0.00,1185.4,WeatherDisplay:10.37,2013-05-13 17:08:00,
2013-05-13 12:13:00,66.7,35.1,30.15,WNW,288,4.4,5.8,31,0.00,CLR,,0.00,1185.4,WeatherDisplay:10.37,2013-05-13 17:13:00,
2013-05-13 12:18:00,66.6,30.6,30.14,NNW,334,10.6,12.7,26,0.00,CLR,,0.00,1190.4,WeatherDisplay:10.37,2013-05-13 17:18:00,
2013-05-13 12:23:00,66.3,33.1,30.14,West,276,5.0,6.0,29,0.00,CLR,,0.00,1192.9,WeatherDisplay:10.37,2013-05-13 17:23:00,
2013-05-13 12:28:00,66.8,35.2,30.14,West,272,0.7,2.3,31,0.00,CLR,,0.00,1199.1,WeatherDisplay:10.37,2013-05-13 17:28:00,
2013-05-13 12:33:00,67.4,36.5,30.14,WSW,249,2.7,5.0,32,0.00,CLR,,0.00,1194.1,WeatherDisplay:10.37,2013-05-13 17:33:00,
2013-05-13 12:38:00,67.4,35.7,30.13,West,276,6.4,8.1,31,0.00,CLR,,0.00,1201.6,WeatherDisplay:10.37,2013-05-13 17:38:00,
2013-05-13 12:43:00,67.3,33.1,30.13,NW,313,5.8,9.2,28,0.00,CLR,,0.00,1194.1,WeatherDisplay:10.37,2013-05-13 17:43:00,
2013-05-13 12:48:00,67.5,35.8,30.13,ESE,114,4.6,9.2,31,0.00,CLR,,0.00,1196.6,WeatherDisplay:10.37,2013-05-13 17:48:00,
2013-05-13 12:53:00,67.0,36.1,30.13,SW,227,8.6,15.0,32,0.00,CLR,,0.00,1210.2,WeatherDisplay:10.37,2013-05-13 17:53:00,
2013-05-13 12:58:00,67.4,38.0,30.13,SE,132,1.3,3.5,34,0.00,CLR,,0.00,1196.6,WeatherDisplay:10.37,2013-05-13 17:58:00,
2013-05-13 13:03:00,68.4,36.6,30.13,SSW,198,2.6,5.8,31,0.00,CLR,,0.00,1205.3,WeatherDisplay:10.37,2013-05-13 18:03:00,
2013-05-13 13:08:00,68.0,35.4,30.12,SSW,209,3.8,5.8,30,0.00,CLR,,0.00,1210.2,WeatherDisplay:10.37,2013-05-13 18:08:00,
2013-05-13 13:13:00,68.4,36.6,30.12,SW,230,8.0,11.0,31,0.00,CLR,,0.00,1148.2,WeatherDisplay:10.37,2013-05-13 18:13:00,
2013-05-13 13:18:00,68.4,38.2,30.12,SW,217,6.2,11.5,33,0.00,CLR,,0.00,1194.1,WeatherDisplay:10.37,2013-05-13 18:18:00,
2013-05-13 13:23:00,68.4,38.2,30.12,SSE,148,4.1,11.5,33,0.00,CLR,,0.00,1199.1,WeatherDisplay:10.37,2013-05-13 18:23:00,
2013-05-13 13:28:00,68.5,37.5,30.11,SSW,198,6.8,10.4,32,0.00,CLR,,0.00,1192.9,WeatherDisplay:10.37,2013-05-13 18:28:00,
2013-05-13 13:33:00,68.5,39.0,30.11,SSE,160,2.1,5.8,34,0.00,CLR,,0.00,1187.9,WeatherDisplay:10.37,2013-05-13 18:33:00,
2013-05-13 13:38:00,69.3,39.7,30.11,SSW,206,1.8,6.9,34,0.00,CLR,,0.00,1185.4,WeatherDisplay:10.37,2013-05-13 18:38:00,
2013-05-13 13:43:00,69.6,37.6,30.11,West,280,1.2,5.0,31,0.00,CLR,,0.00,1190.4,WeatherDisplay:10.37,2013-05-13 18:43:00,
2013-05-13 13:48:00,70.5,39.2,30.11,WSW,244,6.3,10.0,32,0.00,CLR,,0.00,1161.9,WeatherDisplay:10.37,2013-05-13 18:48:00,
2013-05-13 13:53:00,70.2,37.3,30.11,SW,235,5.7,7.0,30,0.00,CLR,,0.00,1187.9,WeatherDisplay:10.37,2013-05-13 18:53:00,
2013-05-13 13:58:00,69.8,39.4,30.10,WSW,240,6.7,10.0,33,0.00,CLR,,0.00,1176.8,WeatherDisplay:10.37,2013-05-13 18:58:00,
2013-05-13 14:03:00,69.8,38.6,30.10,West,270,8.5,13.0,32,0.00,CLR,,0.00,1174.3,WeatherDisplay:10.37,2013-05-13 19:03:00,
2013-05-13 14:08:00,69.3,38.2,30.10,SSW,196,2.5,4.0,32,0.00,CLR,,0.00,1237.5,WeatherDisplay:10.37,2013-05-13 19:08:00,
2013-05-13 14:13:00,69.3,37.3,30.10,SW,225,3.0,10.4,31,0.00,CLR,,0.00,1478.1,WeatherDisplay:10.37,2013-05-13 19:13:00,
2013-05-13 14:18:00,70.3,40.6,30.09,SW,218,4.6,9.0,34,0.00,CLR,,0.00,1342.9,WeatherDisplay:10.37,2013-05-13 19:18:00,
2013-05-13 14:23:00,71.3,41.5,30.09,SSE,149,8.1,13.8,34,0.00,CLR,,0.00,1192.9,WeatherDisplay:10.37,2013-05-13 19:23:00,
2013-05-13 14:28:00,70.6,38.5,30.09,SW,220,2.2,3.5,31,0.00,CLR,,0.00,1176.8,WeatherDisplay:10.37,2013-05-13 19:28:00,
2013-05-13 14:33:00,70.4,39.1,30.09,WSW,238,9.5,17.3,32,0.00,CLR,,0.00,1201.6,WeatherDisplay:10.37,2013-05-13 19:33:00,
2013-05-13 14:38:00,70.7,39.4,30.08,South,169,3.1,8.1,32,0.00,CLR,,0.00,1187.9,WeatherDisplay:10.37,2013-05-13 19:38:00,
2013-05-13 14:43:00,70.7,40.9,30.08,South,186,4.0,6.0,34,0.00,CLR,,0.00,1170.6,WeatherDisplay:10.37,2013-05-13 19:43:00,
2013-05-13 14:48:00,70.9,40.3,30.08,SW,214,6.1,10.4,33,0.00,CLR,,0.00,1111.0,WeatherDisplay:10.37,2013-05-13 19:48:00,
2013-05-13 14:53:00,71.0,41.2,30.08,South,191,4.7,6.9,34,0.00,CLR,,0.00,1070.1,WeatherDisplay:10.37,2013-05-13 19:53:00,
2013-05-13 14:58:00,71.7,41.0,30.08,SSW,210,4.3,10.4,33,0.00,CLR,,0.00,1061.4,WeatherDisplay:10.37,2013-05-13 19:58:00,
2013-05-13 15:03:00,71.5,40.9,30.08,West,281,7.0,11.5,33,0.00,CLR,,0.00,1159.4,WeatherDisplay:10.37,2013-05-13 20:03:00,
2013-05-13 15:08:00,71.6,41.7,30.08,West,267,9.7,12.7,34,0.00,CLR,,0.00,1159.4,WeatherDisplay:10.37,2013-05-13 20:08:00,
2013-05-13 15:13:00,71.5,40.9,30.07,SW,223,7.5,11.5,33,0.00,CLR,,0.00,1320.6,WeatherDisplay:10.37,2013-05-13 20:13:00,
2013-05-13 15:18:00,71.3,40.7,30.07,WSW,245,8.9,12.7,33,0.00,CLR,,0.00,1147.0,WeatherDisplay:10.37,2013-05-13 20:18:00,
2013-05-13 15:23:00,71.3,41.5,30.07,West,268,3.9,7.0,34,0.00,CLR,,0.00,1196.6,WeatherDisplay:10.37,2013-05-13 20:23:00,
2013-05-13 15:28:00,71.9,42.0,30.07,WNW,283,6.7,13.0,34,0.00,CLR,,0.00,811.0,WeatherDisplay:10.37,2013-05-13 20:28:00,
2013-05-13 15:33:00,72.2,42.3,30.06,SSE,163,3.1,5.8,34,0.00,CLR,,0.00,1061.4,WeatherDisplay:10.37,2013-05-13 20:33:00,
2013-05-13 15:38:00,71.8,40.3,30.06,WSW,242,4.6,6.0,32,0.00,CLR,,0.00,1024.2,WeatherDisplay:10.37,2013-05-13 20:38:00,
2013-05-13 15:43:00,71.7,41.0,30.06,SW,221,11.0,15.0,33,0.00,CLR,,0.00,958.5,WeatherDisplay:10.37,2013-05-13 20:43:00,
2013-05-13 15:48:00,71.3,41.5,30.06,South,182,5.2,8.1,34,0.00,CLR,,0.00,920.1,WeatherDisplay:10.37,2013-05-13 20:48:00,
2013-05-13 15:53:00,71.6,41.7,30.05,SSE,152,5.2,9.2,34,0.00,CLR,,0.00,895.3,WeatherDisplay:10.37,2013-05-13 20:53:00,
2013-05-13 15:58:00,71.9,41.2,30.05,West,269,3.9,5.8,33,0.00,CLR,,0.00,886.6,WeatherDisplay:10.37,2013-05-13 20:58:00,
2013-05-13 16:03:00,72.3,41.6,30.05,SW,222,4.6,12.0,33,0.00,CLR,,0.00,817.2,WeatherDisplay:10.37,2013-05-13 21:03:00,
2013-05-13 16:08:00,72.0,42.1,30.04,SW,215,2.3,5.0,34,0.00,CLR,,0.00,808.5,WeatherDisplay:10.37,2013-05-13 21:08:00,
2013-05-13 16:13:00,72.2,43.0,30.05,SSW,200,4.5,8.1,35,0.00,CLR,,0.00,832.0,WeatherDisplay:10.37,2013-05-13 21:13:00,
2013-05-13 16:18:00,72.7,43.5,30.04,South,177,2.7,5.0,35,0.00,CLR,,0.00,837.0,WeatherDisplay:10.37,2013-05-13 21:18:00,
2013-05-13 16:23:00,72.6,41.8,30.04,SW,227,7.6,12.0,33,0.00,CLR,,0.00,823.4,WeatherDisplay:10.37,2013-05-13 21:23:00,
2013-05-13 16:28:00,72.0,42.1,30.03,SE,138,4.2,6.0,34,0.00,CLR,,0.00,784.9,WeatherDisplay:10.37,2013-05-13 21:28:00,
2013-05-13 16:33:00,71.9,42.8,30.04,SW,223,8.4,16.1,35,0.00,CLR,,0.00,949.8,WeatherDisplay:10.37,2013-05-13 21:33:00,
2013-05-13 16:38:00,71.9,43.5,30.03,SSE,155,4.9,6.9,36,0.00,CLR,,0.00,889.1,WeatherDisplay:10.37,2013-05-13 21:38:00,
2013-05-13 16:43:00,72.4,43.2,30.03,SW,218,6.0,12.0,35,0.00,CLR,,0.00,813.4,WeatherDisplay:10.37,2013-05-13 21:43:00,
2013-05-13 16:48:00,72.3,43.1,30.03,SSW,203,6.1,11.5,35,0.00,CLR,,0.00,734.1,WeatherDisplay:10.37,2013-05-13 21:48:00,
2013-05-13 16:53:00,72.3,43.8,30.03,SW,223,7.4,11.5,36,0.00,CLR,,0.00,688.2,WeatherDisplay:10.37,2013-05-13 21:53:00,
2013-05-13 16:58:00,72.4,43.9,30.03,SSW,205,6.7,11.5,36,0.00,CLR,,0.00,682.0,WeatherDisplay:10.37,2013-05-13 21:58:00,
2013-05-13 17:03:00,72.4,43.9,30.03,SSE,161,3.1,6.0,36,0.00,CLR,,0.00,598.9,WeatherDisplay:10.37,2013-05-13 22:03:00,
2013-05-13 17:08:00,72.2,43.8,30.02,SW,232,5.7,11.5,36,0.00,CLR,,0.00,586.5,WeatherDisplay:10.37,2013-05-13 22:08:00,
2013-05-13 17:13:00,72.1,44.4,30.02,South,175,4.5,12.7,37,0.00,CLR,,0.00,549.3,WeatherDisplay:10.37,2013-05-13 22:13:00,
2013-05-13 17:18:00,72.4,45.4,30.02,SSE,152,4.5,10.0,38,0.00,CLR,,0.00,336.0,WeatherDisplay:10.37,2013-05-13 22:18:00,
2013-05-13 17:23:00,72.0,45.0,30.02,SW,221,7.2,12.0,38,0.00,CLR,,0.00,553.0,WeatherDisplay:10.37,2013-05-13 22:23:00,
2013-05-13 17:28:00,71.9,45.6,30.02,SE,139,4.3,9.0,39,0.00,CLR,,0.00,503.4,WeatherDisplay:10.37,2013-05-13 22:28:00,
2013-05-13 17:33:00,71.6,44.6,30.02,SSW,211,7.0,11.5,38,0.00,CLR,,0.00,172.4,WeatherDisplay:10.37,2013-05-13 22:33:00,
2013-05-13 17:38:00,71.0,44.1,30.02,SW,225,3.7,5.8,38,0.00,FEW,,0.00,129.0,WeatherDisplay:10.37,2013-05-13 22:38:00,
2013-05-13 17:43:00,70.6,44.4,30.02,South,190,6.3,10.4,39,0.00,OVC,,0.00,100.4,WeatherDisplay:10.37,2013-05-13 22:43:00,
2013-05-13 17:48:00,70.3,44.8,30.01,South,181,6.9,11.5,40,0.00,OVC,,0.00,86.8,WeatherDisplay:10.37,2013-05-13 22:48:00,
2013-05-13 17:53:00,69.9,43.8,30.01,SSE,165,5.8,10.4,39,0.00,OVC,,0.00,109.1,WeatherDisplay:10.37,2013-05-13 22:53:00,
2013-05-13 17:58:00,69.7,44.9,30.01,SSW,208,4.2,11.0,41,0.00,OVC,,0.00,146.3,WeatherDisplay:10.37,2013-05-13 22:58:00,
2013-05-13 18:03:00,69.5,44.1,30.01,South,187,4.3,9.0,40,0.00,BKN,,0.00,174.8,WeatherDisplay:10.37,2013-05-13 23:03:00,
2013-05-13 18:08:00,69.4,44.7,30.01,SSW,200,6.4,11.5,41,0.00,SCT,,0.00,150.0,WeatherDisplay:10.37,2013-05-13 23:08:00,
2013-05-13 18:13:00,69.4,44.7,30.01,SSE,156,4.4,9.2,41,0.00,SCT,,0.00,169.9,WeatherDisplay:10.37,2013-05-13 23:13:00,
2013-05-13 18:18:00,69.4,44.7,30.01,SSW,194,4.9,12.0,41,0.00,SCT,,0.00,155.0,WeatherDisplay:10.37,2013-05-13 23:18:00,
2013-05-13 18:23:00,69.4,44.7,30.01,SSW,211,8.8,16.1,41,0.00,SCT,,0.00,157.5,WeatherDisplay:10.37,2013-05-13 23:23:00,
2013-05-13 18:28:00,69.4,45.3,30.00,SW,227,5.0,11.0,42,0.00,FEW,,0.00,233.1,WeatherDisplay:10.37,2013-05-13 23:28:00,
2013-05-13 18:33:00,69.5,45.4,30.00,SSW,199,4.0,7.0,42,0.00,CLR,,0.00,259.2,WeatherDisplay:10.37,2013-05-13 23:33:00,
2013-05-13 18:38:00,69.5,46.0,30.00,SSE,163,4.5,8.1,43,0.00,CLR,,0.00,209.6,WeatherDisplay:10.37,2013-05-13 23:38:00,
2013-05-13 18:43:00,69.4,45.9,30.00,South,187,4.8,8.1,43,0.00,CLR,,0.00,152.5,WeatherDisplay:10.37,2013-05-13 23:43:00,
2013-05-13 18:48:00,69.1,46.3,30.00,SSE,151,2.6,5.0,44,0.00,FEW,,0.00,124.0,WeatherDisplay:10.37,2013-05-13 23:48:00,
2013-05-13 18:53:00,68.8,45.4,30.00,SSE,159,4.3,6.9,43,0.00,FEW,,0.00,157.5,WeatherDisplay:10.37,2013-05-13 23:53:00,
2013-05-13 18:58:00,68.7,45.9,30.00,SSE,165,3.3,6.0,44,0.00,CLR,,0.00,112.8,WeatherDisplay:10.37,2013-05-13 23:58:00,
2013-05-13 19:03:00,68.5,46.3,29.99,SSE,161,3.5,7.0,45,0.00,FEW,,0.00,100.4,WeatherDisplay:10.37,2013-05-14 00:03:00,
2013-05-13 19:08:00,68.2,46.6,29.99,SSW,207,3.0,5.8,46,0.00,FEW,,0.00,95.5,WeatherDisplay:10.37,2013-05-14 00:08:00,
2013-05-13 19:13:00,68.0,46.4,29.99,SSE,153,1.7,4.6,46,0.00,FEW,,0.00,83.1,WeatherDisplay:10.37,2013-05-14 00:13:00,
2013-05-13 19:18:00,67.9,46.3,29.99,SSE,153,2.3,4.0,46,0.00,SCT,,0.00,71.9,WeatherDisplay:10.37,2013-05-14 00:18:00,
2013-05-13 19:23:00,67.7,46.2,29.99,SE,143,3.9,8.1,46,0.00,SCT,,0.00,60.8,WeatherDisplay:10.37,2013-05-14 00:23:00,
2013-05-13 19:28:00,67.4,46.5,29.98,SSE,149,3.2,6.0,47,0.00,SCT,,0.00,49.6,WeatherDisplay:10.37,2013-05-14 00:28:00,
2013-05-13 19:33:00,67.2,46.3,29.98,SSE,163,3.7,6.9,47,0.00,BKN,,0.00,39.7,WeatherDisplay:10.37,2013-05-14 00:33:00,
2013-05-13 19:38:00,66.9,46.0,29.98,SSE,155,4.1,7.0,47,0.00,BKN,,0.00,32.2,WeatherDisplay:10.37,2013-05-14 00:38:00,
2013-05-13 19:43:00,66.7,45.8,29.98,SSE,164,3.2,5.0,47,0.00,BKN,,0.00,26.0,WeatherDisplay:10.37,2013-05-14 00:43:00,
2013-05-13 19:48:00,66.5,45.6,29.98,SSE,161,3.6,6.0,47,0.00,OVC,,0.00,19.8,WeatherDisplay:10.37,2013-05-14 00:48:00,
2013-05-13 19:53:00,66.4,45.5,29.98,SE,146,4.0,7.0,47,0.00,OVC,,0.00,14.9,WeatherDisplay:10.37,2013-05-14 00:53:00,
2013-05-13 19:58:00,66.2,45.9,29.98,SSE,150,4.2,7.0,48,0.00,OVC,,0.00,11.2,WeatherDisplay:10.37,2013-05-14 00:58:00,
2013-05-13 20:03:00,66.0,45.7,29.98,SSE,155,4.7,6.0,48,0.00,OVC,,0.00,6.2,WeatherDisplay:10.37,2013-05-14 01:03:00,
2013-05-13 20:08:00,65.8,46.1,29.97,SSE,156,3.6,6.9,49,0.00,OVC,,0.00,0.0,WeatherDisplay:10.37,2013-05-14 01:08:00,
2013-05-13 20:13:00,65.6,45.9,29.97,SSE,155,5.0,9.2,49,0.00,OVC,,0.00,0.0,WeatherDisplay:10.37,2013-05-14 01:13:00,
2013-05-13 20:18:00,65.3,45.6,29.97,SSE,151,4.5,9.2,49,0.00,OVC,,0.00,0.0,WeatherDisplay:10.37,2013-05-14 01:18:00,
2013-05-13 20:23:00,65.1,45.5,29.97,SSE,157,5.5,11.5,49,0.00,OVC,,0.00,0.0,WeatherDisplay:10.37,2013-05-14 01:23:00,
2013-05-13 20:28:00,64.9,45.8,29.96,SSE,154,5.8,10.4,50,0.00,OVC,,0.00,0.0,WeatherDisplay:10.37,2013-05-14 01:28:00,
2013-05-13 20:33:00,64.7,45.6,29.96,SSE,156,4.9,10.4,50,0.00,OVC,,0.00,0.0,WeatherDisplay:10.37,2013-05-14 01:33:00,
2013-05-13 20:38:00,64.5,45.4,29.96,SE,136,5.0,9.2,50,0.00,OVC,,0.00,0.0,WeatherDisplay:10.37,2013-05-14 01:38:00,
2013-05-13 20:43:00,64.4,45.3,29.96,SSE,153,3.5,10.4,50,0.00,OVC,,0.00,0.0,WeatherDisplay:10.37,2013-05-14 01:43:00,
2013-05-13 20:48:00,64.3,45.3,29.96,SSE,158,4.3,6.9,50,0.00,CLR,,0.00,0.0,WeatherDisplay:10.37,2013-05-14 01:48:00,
2013-05-13 20:53:00,64.1,45.1,29.96,SSE,165,4.7,10.4,50,0.00,CLR,,0.00,0.0,WeatherDisplay:10.37,2013-05-14 01:53:00,
2013-05-13 20:58:00,64.1,45.6,29.96,SSE,155,4.6,6.0,51,0.00,CLR,,0.00,0.0,WeatherDisplay:10.37,2013-05-14 01:58:00,
2013-05-13 21:03:00,63.9,45.4,29.96,SSE,157,3.8,6.9,51,0.00,CLR,,0.00,0.0,WeatherDisplay:10.37,2013-05-14 02:03:00,
2013-05-13 21:08:00,63.7,45.2,29.96,SSE,148,4.6,5.8,51,0.00,CLR,,0.00,0.0,WeatherDisplay:10.37,2013-05-14 02:08:00,
2013-05-13 21:13:00,63.5,45.6,29.96,SSE,149,5.4,10.4,52,0.00,CLR,,0.00,0.0,WeatherDisplay:10.37,2013-05-14 02:13:00,
2013-05-13 21:18:00,63.3,45.4,29.96,SSE,150,4.1,10.4,52,0.00,CLR,,0.00,0.0,WeatherDisplay:10.37,2013-05-14 02:18:00,
2013-05-13 21:23:00,63.1,45.2,29.97,SSE,159,3.0,5.0,52,0.00,CLR,,0.00,0.0,WeatherDisplay:10.37,2013-05-14 02:23:00,
2013-05-13 21:28:00,63.0,45.1,29.97,SSE,152,4.2,10.4,52,0.00,CLR,,0.00,0.0,WeatherDisplay:10.37,2013-05-14 02:28:00,
2013-05-13 21:33:00,62.8,44.9,29.97,SSE,159,4.4,6.0,52,0.00,CLR,,0.00,0.0,WeatherDisplay:10.37,2013-05-14 02:33:00,
2013-05-13 21:38:00,62.8,44.9,29.98,SSE,153,5.4,9.0,52,0.00,CLR,,0.00,0.0,WeatherDisplay:10.37,2013-05-14 02:38:00,
2013-05-13 21:43:00,62.7,44.8,29.98,SSE,150,4.8,6.9,52,0.00,CLR,,0.00,0.0,WeatherDisplay:10.37,2013-05-14 02:43:00,
2013-05-13 21:48:00,62.8,44.9,29.98,SE,143,3.8,5.8,52,0.00,CLR,,0.00,0.0,WeatherDisplay:10.37,2013-05-14 02:48:00,
2013-05-13 21:53:00,62.8,44.9,29.98,SSE,150,3.2,4.6,52,0.00,CLR,,0.00,0.0,WeatherDisplay:10.37,2013-05-14 02:53:00,
2013-05-13 21:58:00,62.7,45.3,29.98,SE,146,4.7,5.8,53,0.00,CLR,,0.00,0.0,WeatherDisplay:10.37,2013-05-14 02:58:00,
2013-05-13 22:03:00,62.6,45.2,29.98,SSE,152,4.6,6.9,53,0.00,CLR,,0.00,0.0,WeatherDisplay:10.37,2013-05-14 03:03:00,
2013-05-13 22:08:00,62.4,45.5,29.97,SSE,155,3.5,5.8,54,0.00,CLR,,0.00,0.0,WeatherDisplay:10.37,2013-05-14 03:08:00,
2013-05-13 22:13:00,62.1,45.2,29.97,SSE,155,4.6,6.0,54,0.00,CLR,,0.00,0.0,WeatherDisplay:10.37,2013-05-14 03:13:00,
2013-05-13 22:18:00,61.8,45.0,29.97,SE,146,4.1,6.9,54,0.00,CLR,,0.00,0.0,WeatherDisplay:10.37,2013-05-14 03:18:00,
2013-05-13 22:23:00,61.5,45.2,29.96,SSE,151,4.7,5.8,55,0.00,CLR,,0.00,0.0,WeatherDisplay:10.37,2013-05-14 03:23:00,
2013-05-13 22:29:00,61.2,45.4,29.96,SSE,148,3.6,5.8,56,0.00,CLR,,0.00,0.0,WeatherDisplay:10.37,2013-05-14 03:29:00,
2013-05-13 22:34:00,60.9,45.1,29.96,SE,126,3.1,5.0,56,0.00,CLR,,0.00,0.0,WeatherDisplay:10.37,2013-05-14 03:34:00,
2013-05-13 22:39:00,60.5,45.2,29.96,SSE,147,3.3,6.0,57,0.00,CLR,,0.00,0.0,WeatherDisplay:10.37,2013-05-14 03:39:00,
2013-05-13 22:44:00,60.2,44.9,29.96,SE,145,5.1,7.0,57,0.00,CLR,,0.00,0.0,WeatherDisplay:10.37,2013-05-14 03:44:00,
2013-05-13 22:49:00,60.0,44.7,29.96,SE,138,4.9,9.2,57,0.00,CLR,,0.00,0.0,WeatherDisplay:10.37,2013-05-14 03:49:00,
2013-05-13 22:54:00,59.8,44.5,29.95,SSE,161,6.0,12.0,57,0.00,CLR,,0.00,0.0,WeatherDisplay:10.37,2013-05-14 03:54:00,
2013-05-13 22:59:00,59.8,44.5,29.95,SSE,157,9.3,12.0,57,0.00,CLR,,0.00,0.0,WeatherDisplay:10.37,2013-05-14 03:59:00,
2013-05-13 23:01:00,59.8,44.5,29.95,SSW,209,5.3,11.5,57,0.00,CLR,,0.00,0.0,WeatherDisplay:10.37,2013-05-14 04:01:00,
2013-05-13 23:06:00,59.8,44.1,29.94,SSE,152,6.0,10.4,56,0.00,CLR,,0.00,0.0,WeatherDisplay:10.37,2013-05-14 04:06:00,
2013-05-13 23:11:00,59.8,44.1,29.94,SE,144,6.6,10.4,56,0.00,CLR,,0.00,0.0,WeatherDisplay:10.37,2013-05-14 04:11:00,
2013-05-13 23:16:00,59.8,44.1,29.94,South,169,6.8,12.0,56,0.00,CLR,,0.00,0.0,WeatherDisplay:10.37,2013-05-14 04:16:00,
2013-05-13 23:21:00,59.8,44.1,29.94,SSE,153,6.4,9.2,56,0.00,CLR,,0.00,0.0,WeatherDisplay:10.37,2013-05-14 04:21:00,
2013-05-13 23:26:00,59.8,44.1,29.94,SSE,157,4.9,8.1,56,0.00,CLR,,0.00,0.0,WeatherDisplay:10.37,2013-05-14 04:26:00,
2013-05-13 23:31:00,59.6,43.9,29.94,SE,144,6.4,9.2,56,0.00,CLR,,0.00,0.0,WeatherDisplay:10.37,2013-05-14 04:31:00,
2013-05-13 23:36:00,59.4,44.2,29.94,SE,146,5.3,10.4,57,0.00,CLR,,0.00,0.0,WeatherDisplay:10.37,2013-05-14 04:36:00,
2013-05-13 23:41:00,59.0,43.8,29.94,SSE,154,5.7,9.0,57,0.00,CLR,,0.00,0.0,WeatherDisplay:10.37,2013-05-14 04:41:00,
2013-05-13 23:46:00,59.0,43.8,29.94,South,179,9.0,13.0,57,0.00,CLR,,0.00,0.0,WeatherDisplay:10.37,2013-05-14 04:46:00,
2013-05-13 23:51:00,59.0,43.8,29.94,SE,129,6.6,12.0,57,0.00,CLR,,0.00,0.0,WeatherDisplay:10.37,2013-05-14 04:51:00,
2013-05-13 23:56:00,59.0,43.8,29.93,SE,145,7.8,11.5,57,0.00,CLR,,0.00,0.0,WeatherDisplay:10.37,2013-05-14 04:56:00,